Time;durP1;ratioP1;P1;durP2;ratioP2;P2;SDS_P1;SDS_P2;PMS_P1;PMS_P2;Temp;Humidity;BMP_temperature;BMP_pressure;BME280_temperature;BME280_humidity;BME280_pressure;Samples;Min_cycle;Max_cycle;Signal;HPM_P1;HPM_P2
2023/01/22 00:02:01;;;;;;;1999.90;999.90;;;2.50;1.00;;;;;;4952479;28;20047;-81
2023/01/22 00:04:27;;;;;;;1999.90;999.90;;;4.10;1.00;;;;;;4945577;28;20044;-82
2023/01/22 00:06:53;;;;;;;1999.90;999.90;;;3.00;1.00;;;;;;4947803;28;20047;-82
2023/01/22 00:09:21;;;;;;;1999.90;999.90;;;3.30;99.90;;;;;;4942025;28;20062;-82
2023/01/22 00:11:47;;;;;;;1999.90;999.90;;;3.40;99.90;;;;;;4946106;28;20130;-82
2023/01/22 00:14:13;;;;;;;1999.90;999.90;;;4.80;99.90;;;;;;4944848;28;20050;-82
2023/01/22 00:16:40;;;;;;;1999.90;999.90;;;4.50;99.90;;;;;;4956668;28;20043;-82
2023/01/22 00:19:06;;;;;;;1999.90;999.90;;;5.10;99.90;;;;;;4956675;29;20114;-82
2023/01/22 00:21:32;;;;;;;1999.90;999.90;;;2.90;99.90;;;;;;4956812;28;20131;-81
2023/01/22 00:23:58;;;;;;;1999.90;999.90;;;2.90;99.90;;;;;;4956554;29;20079;-81
2023/01/22 00:26:23;;;;;;;1999.90;999.90;;;4.50;99.90;;;;;;4959867;29;20047;-81
2023/01/22 00:28:49;;;;;;;1999.90;999.90;;;;;;;;;;4944591;28;20086;-82
2023/01/22 00:31:16;;;;;;;1999.90;999.90;;;4.30;28.30;;;;;;4960085;28;20079;-82
2023/01/22 00:33:42;;;;;;;1999.90;999.90;;;3.70;99.90;;;;;;4936286;29;20043;-82
2023/01/22 00:36:12;;;;;;;1999.90;999.90;;;4.70;99.90;;;;;;4952531;28;20401;-82
2023/01/22 00:38:38;;;;;;;1999.90;999.90;;;3.30;99.90;;;;;;4953189;28;20081;-82
2023/01/22 00:41:05;;;;;;;1999.90;999.90;;;5.90;99.90;;;;;;4954293;29;20086;-82
2023/01/22 00:43:32;;;;;;;1999.90;999.90;;;3.70;99.90;;;;;;4954893;28;20050;-82
2023/01/22 00:45:59;;;;;;;1999.90;999.90;;;3.50;1.00;;;;;;4949664;28;20050;-83
2023/01/22 00:48:24;;;;;;;1999.90;999.90;;;4.50;1.00;;;;;;4948847;28;20043;-83
2023/01/22 00:50:50;;;;;;;1999.90;999.90;;;4.10;20.50;;;;;;4952177;28;20055;-83
2023/01/22 00:53:16;;;;;;;1999.90;999.90;;;5.70;97.80;;;;;;4952321;28;20105;-83
2023/01/22 00:55:51;;;;;;;1999.90;999.90;;;4.50;99.90;;;;;;4949153;28;20122;-83
2023/01/22 00:58:17;;;;;;;1999.90;999.90;;;4.20;99.90;;;;;;4952626;28;20059;-83
2023/01/22 01:00:43;;;;;;;1999.90;999.90;;;6.10;99.90;;;;;;4954198;28;20095;-83
2023/01/22 01:03:27;;;;;;;1999.90;999.90;;;4.80;96.50;;;;;;4953789;28;20054;-83
2023/01/22 01:05:53;;;;;;;1999.90;999.90;;;6.40;96.60;;;;;;4953603;29;20081;-82
2023/01/22 01:08:19;;;;;;;1999.90;999.90;;;6.10;2.00;;;;;;4942103;28;20052;-83
2023/01/22 01:10:45;;;;;;;1999.90;999.90;;;;;;;;;;4934358;29;20097;-83
2023/01/22 01:13:11;;;;;;;1999.90;999.90;;;3.40;99.90;;;;;;4935746;28;20473;-83
2023/01/22 01:15:37;;;;;;;1999.90;999.90;;;3.60;1.00;;;;;;4952699;29;20066;-82
2023/01/22 01:18:03;;;;;;;1999.90;999.90;;;5.30;1.00;;;;;;4953982;28;20047;-83
2023/01/22 01:20:30;;;;;;;1999.90;999.90;;;3.20;1.00;;;;;;4946392;29;20520;-83
2023/01/22 01:22:55;;;;;;;1999.90;999.90;;;3.40;99.90;;;;;;4947709;28;20047;-81
2023/01/22 01:25:22;;;;;;;1999.90;999.90;;;;;;;;;;4953737;28;20051;-81
2023/01/22 01:27:47;;;;;;;1999.90;999.90;;;3.70;99.90;;;;;;4953234;28;20051;-82
2023/01/22 01:30:15;;;;;;;1999.90;999.90;;;3.90;94.80;;;;;;4952392;28;20149;-82
2023/01/22 01:32:40;;;;;;;1999.90;999.90;;;3.70;1.00;;;;;;4952624;28;20044;-81
2023/01/22 01:35:06;;;;;;;1999.90;999.90;;;3.20;99.90;;;;;;4953159;28;20373;-81
2023/01/22 01:37:32;;;;;;;1999.90;999.90;;;3.00;99.90;;;;;;4945417;28;20048;-81
2023/01/22 01:39:58;;;;;;;1999.90;999.90;;;3.30;99.90;;;;;;4940463;29;20055;-81
2023/01/22 01:42:28;;;;;;;1999.90;999.90;;;3.30;99.90;;;;;;4932969;29;20047;-82
2023/01/22 01:45:18;;;;;;;1999.90;999.90;;;3.30;99.90;;;;;;4934888;29;20115;-81
2023/01/22 01:47:44;;;;;;;1999.90;999.90;;;3.20;15.50;;;;;;4944954;28;20543;-81
2023/01/22 01:50:10;;;;;;;1999.90;999.90;;;3.40;1.00;;;;;;4948936;28;20050;-82
2023/01/22 01:52:37;;;;;;;1999.90;999.90;;;5.20;1.00;;;;;;4955929;29;20158;-81
2023/01/22 01:55:03;;;;;;;1999.90;999.90;;;2.80;99.90;;;;;;4950475;29;20477;-82
2023/01/22 01:57:32;;;;;;;1999.90;999.90;;;3.10;99.90;;;;;;4955345;28;20054;-81
2023/01/22 02:00:02;;;;;;;1999.90;999.90;;;3.00;99.90;;;;;;4954685;29;20081;-81
2023/01/22 02:02:28;;;;;;;1999.90;999.90;;;5.20;99.90;;;;;;4955135;28;20055;-81
2023/01/22 02:04:54;;;;;;;1999.90;999.90;;;2.80;99.90;;;;;;4947474;29;20122;-81
2023/01/22 02:07:20;;;;;;;1999.90;999.90;;;2.20;99.90;;;;;;4952411;28;20061;-82
2023/01/22 02:09:46;;;;;;;1999.90;999.90;;;5.00;99.90;;;;;;4955881;29;20102;-81
2023/01/22 02:12:11;;;;;;;1999.90;999.90;;;2.60;99.90;;;;;;4953838;28;20047;-81
2023/01/22 02:14:44;;;;;;;1999.90;999.90;;;2.80;99.90;;;;;;4954874;29;20094;-81
2023/01/22 02:17:17;;;;;;;1999.90;999.90;;;3.40;99.90;;;;;;4952591;28;20043;-81
2023/01/22 02:19:43;;;;;;;1999.90;999.90;;;5.00;99.90;;;;;;4956244;28;20408;-81
2023/01/22 02:22:18;;;;;;;1999.90;999.90;;;3.20;86.20;;;;;;4954786;29;20409;-81
2023/01/22 02:24:43;;;;;;;1999.90;999.90;;;3.40;57.90;;;;;;4955528;29;20405;-81
2023/01/22 02:27:09;;;;;;;1999.90;999.90;;;4.60;99.90;;;;;;4952906;28;20043;-81
2023/01/22 02:29:35;;;;;;;1999.90;999.90;;;4.10;1.00;;;;;;4953666;28;20102;-82
2023/01/22 02:32:01;;;;;;;1999.90;999.90;;;3.40;1.00;;;;;;4955798;28;20051;-81
2023/01/22 02:34:26;;;;;;;1999.90;999.90;;;3.60;1.00;;;;;;4954214;28;20458;-81
2023/01/22 02:36:53;;;;;;;1999.90;999.90;;;3.50;99.90;;;;;;4953827;28;20540;-81
2023/01/22 02:39:19;;;;;;;1999.90;999.90;;;4.10;99.90;;;;;;4954437;28;20447;-81
2023/01/22 02:41:45;;;;;;;1999.90;999.90;;;3.90;99.90;;;;;;4955581;28;20050;-81
2023/01/22 02:44:10;;;;;;;1999.90;999.90;;;6.00;99.90;;;;;;4954899;28;20082;-82
2023/01/22 02:46:37;;;;;;;1999.90;999.90;;;5.30;99.90;;;;;;4946368;28;20477;-81
2023/01/22 02:49:03;;;;;;;1999.90;999.90;;;4.10;99.90;;;;;;4951634;28;20043;-82
2023/01/22 02:51:29;;;;;;;1999.90;999.90;;;4.30;1.00;;;;;;4954432;28;20035;-81
2023/01/22 02:53:55;;;;;;;1999.90;999.90;;;5.00;1.00;;;;;;4955308;29;20047;-81
2023/01/22 02:56:20;;;;;;;1999.90;999.90;;;4.60;99.90;;;;;;4953990;28;20066;-81
2023/01/22 02:58:46;;;;;;;1999.90;999.90;;;4.30;99.90;;;;;;4951991;28;20531;-81
2023/01/22 03:01:19;;;;;;;1999.90;999.90;;;3.70;99.90;;;;;;4952290;28;20081;-82
2023/01/22 03:03:50;;;;;;;1999.90;999.90;;;5.20;1.00;;;;;;4953423;28;20122;-81
2023/01/22 03:06:20;;;;;;;1999.90;999.90;;;4.60;1.00;;;;;;4953029;29;20539;-81
2023/01/22 03:08:46;;;;;;;1999.90;999.90;;;3.70;99.90;;;;;;4961954;28;20051;-82
2023/01/22 03:11:13;;;;;;;1999.90;999.90;;;;;;;;;;4951477;28;20082;-82
2023/01/22 03:21:52;;;;;;;1999.90;999.90;;;6.70;99.90;;;;;;4950147;28;20047;-82
2023/01/22 03:24:17;;;;;;;1999.90;999.90;;;4.80;80.30;;;;;;4952118;28;20050;-82
2023/01/22 03:26:43;;;;;;;1999.90;999.90;;;4.60;1.00;;;;;;4952808;28;20058;-82
2023/01/22 03:29:09;;;;;;;1999.90;999.90;;;3.70;1.00;;;;;;4951568;28;20519;-82
2023/01/22 03:31:34;;;;;;;1999.90;999.90;;;4.00;1.00;;;;;;4943495;28;20404;-82
2023/01/22 03:34:00;;;;;;;1999.90;999.90;;;5.10;99.90;;;;;;4952553;29;20136;-81
2023/01/22 03:36:26;;;;;;;1999.90;999.90;;;5.00;1.00;;;;;;4949917;28;20059;-81
2023/01/22 03:38:51;;;;;;;1999.90;999.90;;;5.30;34.40;;;;;;4946553;28;20044;-82
2023/01/22 03:41:18;;;;;;;1999.90;999.90;;;5.00;1.00;;;;;;4951516;28;20047;-81
2023/01/22 03:43:44;;;;;;;1999.90;999.90;;;5.90;1.00;;;;;;4949637;29;20040;-82
2023/01/22 03:46:13;;;;;;;1999.90;999.90;;;5.60;99.90;;;;;;4950815;28;20448;-82
2023/01/22 03:48:39;;;;;;;1999.90;999.90;;;6.30;1.00;;;;;;4951604;29;20058;-81
2023/01/22 03:51:13;;;;;;;1999.90;999.90;;;6.40;1.00;;;;;;4953864;29;20052;-82
2023/01/22 03:53:40;;;;;;;1999.90;999.90;;;5.10;78.30;;;;;;4951982;29;20051;-80
2023/01/22 03:56:10;;;;;;;1999.90;999.90;;;6.00;1.00;;;;;;4952323;28;20051;-81
2023/01/22 03:58:36;;;;;;;1999.90;999.90;;;7.70;99.90;;;;;;4952371;28;20382;-81
2023/01/22 04:01:08;;;;;;;1999.90;999.90;;;5.20;37.60;;;;;;4941988;28;20047;-81
2023/01/22 04:03:34;;;;;;;1999.90;999.90;;;5.00;98.50;;;;;;4951515;28;20043;-82
2023/01/22 04:06:00;;;;;;;1999.90;999.90;;;;;;;;;;4936107;29;20059;-81
2023/01/22 04:08:27;;;;;;;1999.90;999.90;;;4.20;99.90;;;;;;4945279;28;20511;-82
2023/01/22 04:10:57;;;;;;;1999.90;999.90;;;5.30;99.90;;;;;;4951710;28;20051;-81
2023/01/22 04:13:24;;;;;;;1999.90;999.90;;;4.10;99.90;;;;;;4950814;28;21635;-82
2023/01/22 04:15:50;;;;;;;1999.90;999.90;;;5.30;99.90;;;;;;4952946;29;20449;-81
2023/01/22 04:18:16;;;;;;;1999.90;999.90;;;;;;;;;;4953760;29;20085;-82
2023/01/22 04:20:42;;;;;;;1999.90;999.90;;;5.00;69.90;;;;;;4948121;28;20048;-82
2023/01/22 04:23:08;;;;;;;1999.90;999.90;;;5.30;99.90;;;;;;4953090;29;20047;-81
2023/01/22 04:25:34;;;;;;;1999.90;999.90;;;8.10;99.90;;;;;;4953148;29;20051;-81
2023/01/22 04:28:00;;;;;;;1999.90;999.90;;;5.80;99.90;;;;;;4953820;29;20051;-81
2023/01/22 04:30:26;;;;;;;1999.90;999.90;;;;;;;;;;4950986;28;20044;-81
2023/01/22 04:32:52;;;;;;;1999.90;999.90;;;5.40;1.00;;;;;;4954088;28;20051;-81
2023/01/22 04:35:18;;;;;;;1999.90;999.90;;;;;;;;;;4953362;28;20053;-81
2023/01/22 04:37:44;;;;;;;1999.90;999.90;;;6.00;99.90;;;;;;4966499;28;20051;-81
2023/01/22 04:40:10;;;;;;;1999.90;999.90;;;6.40;99.90;;;;;;4944740;28;20315;-81
2023/01/22 04:42:36;;;;;;;1999.90;999.90;;;3.80;99.90;;;;;;4954537;28;20050;-81
2023/01/22 04:45:02;;;;;;;1999.90;999.90;;;6.10;99.90;;;;;;4943647;29;20130;-81
2023/01/22 04:47:28;;;;;;;1999.90;999.90;;;;;;;;;;4951727;29;20079;-81
2023/01/22 04:49:54;;;;;;;1999.90;999.90;;;6.30;99.90;;;;;;4950783;28;20046;-81
2023/01/22 04:52:20;;;;;;;1999.90;999.90;;;5.60;99.90;;;;;;4951562;28;20055;-82
2023/01/22 04:54:46;;;;;;;1999.90;999.90;;;;;;;;;;4953599;28;20050;-81
2023/01/22 04:57:11;;;;;;;1999.90;999.90;;;4.60;99.90;;;;;;4948856;28;20514;-81
2023/01/22 04:59:37;;;;;;;1999.90;999.90;;;6.80;99.90;;;;;;4953162;29;20060;-80
2023/01/22 05:02:03;;;;;;;1999.90;999.90;;;;;;;;;;4942881;29;20051;-80
2023/01/22 05:04:29;;;;;;;1999.90;999.90;;;5.60;99.90;;;;;;4934929;29;20067;-82
2023/01/22 05:06:55;;;;;;;1999.90;999.90;;;5.60;99.90;;;;;;4935567;29;20485;-81
2023/01/22 05:09:21;;;;;;;1999.90;999.90;;;5.10;99.90;;;;;;4949575;28;20456;-81
2023/01/22 05:11:47;;;;;;;1999.90;999.90;;;5.70;99.90;;;;;;4953183;28;20056;-81
2023/01/22 05:14:13;;;;;;;1999.90;999.90;;;6.40;99.90;;;;;;4963151;28;20057;-82
2023/01/22 05:16:38;;;;;;;1999.90;999.90;;;8.10;99.90;;;;;;4973731;28;20035;-80
2023/01/22 05:19:04;;;;;;;1999.90;999.90;;;7.10;99.90;;;;;;4973503;28;20404;-80
2023/01/22 05:21:30;;;;;;;1999.90;999.90;;;;;;;;;;4974391;29;20043;-82
2023/01/22 05:23:56;;;;;;;1999.90;999.90;;;5.60;99.90;;;;;;4963326;29;20047;-81
2023/01/22 05:26:21;;;;;;;1999.90;999.90;;;5.40;99.90;;;;;;4953891;28;20051;-82
2023/01/22 05:28:47;;;;;;;1999.90;999.90;;;5.70;99.90;;;;;;4940138;29;20043;-82
2023/01/22 05:31:13;;;;;;;1999.90;999.90;;;6.20;99.90;;;;;;4951895;28;20105;-85
2023/01/22 05:33:39;;;;;;;1999.90;999.90;;;6.10;99.90;;;;;;4952821;28;20046;-84
2023/01/22 05:36:06;;;;;;;1999.90;999.90;;;5.70;99.90;;;;;;4952654;29;20058;-84
2023/01/22 05:38:32;;;;;;;1999.90;999.90;;;5.80;99.90;;;;;;4948506;28;20048;-85
2023/01/22 05:40:58;;;;;;;1999.90;999.90;;;5.70;99.90;;;;;;4953204;29;20419;-84
2023/01/22 05:43:24;;;;;;;1999.90;999.90;;;6.40;99.90;;;;;;4950311;28;20484;-87
2023/01/22 05:45:49;;;;;;;1999.90;999.90;;;6.60;99.90;;;;;;4937752;29;20053;-85
2023/01/22 05:48:15;;;;;;;1999.90;999.90;;;6.10;99.90;;;;;;4952779;28;20047;-84
2023/01/22 05:50:41;;;;;;;1999.90;999.90;;;5.40;99.90;;;;;;4951020;28;20171;-84
2023/01/22 05:53:07;;;;;;;1999.90;999.90;;;5.60;99.90;;;;;;4947925;28;20515;-83
2023/01/22 05:55:34;;;;;;;1999.90;999.90;;;5.90;99.90;;;;;;4953049;28;20083;-83
2023/01/22 05:58:01;;;;;;;;;;;5.70;99.90;;;;;;4952973;29;20055;-83
2023/01/22 06:00:27;;;;;;;1999.90;999.90;;;5.20;99.90;;;;;;4950778;28;19997;-85
2023/01/22 06:02:57;;;;;;;1999.90;999.90;;;5.70;99.90;;;;;;4948840;28;20397;-84
2023/01/22 06:05:23;;;;;;;1999.90;999.90;;;6.00;99.90;;;;;;4968893;28;20051;-83
2023/01/22 06:07:49;;;;;;;1999.90;999.90;;;6.80;99.90;;;;;;4945595;28;20047;-83
2023/01/22 06:10:15;;;;;;;1999.90;999.90;;;8.60;99.90;;;;;;4960204;28;20058;-83
2023/01/22 06:12:41;;;;;;;1999.90;999.90;;;7.10;99.90;;;;;;4953250;29;20559;-83
2023/01/22 06:15:07;;;;;;;1999.90;999.90;;;6.80;99.90;;;;;;4952445;29;20055;-84
2023/01/22 06:17:33;;;;;;;1999.90;999.90;;;5.70;99.90;;;;;;4952361;29;20146;-83
2023/01/22 06:19:58;;;;;;;1999.90;999.90;;;5.20;99.90;;;;;;4940431;28;20126;-84
2023/01/22 06:22:24;;;;;;;1999.90;999.90;;;6.70;99.90;;;;;;4945966;28;20051;-83
2023/01/22 06:24:50;;;;;;;1999.90;999.90;;;6.10;99.90;;;;;;4952016;28;20040;-83
2023/01/22 06:27:16;;;;;;;1999.90;999.90;;;6.20;99.90;;;;;;4950921;28;20046;-85
2023/01/22 06:29:41;;;;;;;1999.90;999.90;;;6.70;99.90;;;;;;4951893;28;20043;-83
2023/01/22 06:32:07;;;;;;;1999.90;999.90;;;6.00;99.90;;;;;;4951029;28;20051;-83
2023/01/22 06:34:34;;;;;;;1999.90;999.90;;;5.80;99.90;;;;;;4947480;29;20047;-83
2023/01/22 06:36:59;;;;;;;1999.90;999.90;;;7.70;99.90;;;;;;4949969;28;20122;-83
2023/01/22 06:39:25;;;;;;;1999.90;999.90;;;;;;;;;;4951410;28;20146;-83
2023/01/22 06:41:51;;;;;;;1999.90;999.90;;;5.80;99.90;;;;;;4955673;28;20292;-82
2023/01/22 06:44:17;;;;;;;1999.90;999.90;;;6.60;99.90;;;;;;4955070;28;20043;-82
2023/01/22 06:46:45;;;;;;;1999.90;999.90;;;5.80;99.90;;;;;;4948659;28;20052;-82
2023/01/22 06:49:11;;;;;;;1999.90;999.90;;;6.20;99.90;;;;;;4943460;29;20070;-82
2023/01/22 06:51:37;;;;;;;1999.90;999.90;;;7.10;99.90;;;;;;4954092;29;20044;-82
2023/01/22 06:54:03;;;;;;;1999.90;999.90;;;6.00;99.90;;;;;;4952956;29;20046;-82
2023/01/22 06:56:29;;;;;;;1999.90;999.90;;;7.80;99.90;;;;;;4951336;28;20059;-82
2023/01/22 06:58:54;;;;;;;1999.90;999.90;;;5.70;99.90;;;;;;4953794;28;20055;-81
2023/01/22 07:01:20;;;;;;;1999.90;999.90;;;4.80;99.90;;;;;;4951647;28;20254;-83
2023/01/22 07:03:46;;;;;;;1999.90;999.90;;;5.10;99.90;;;;;;4944895;28;20071;-81
2023/01/22 07:06:12;;;;;;;1999.90;999.90;;;6.90;99.90;;;;;;4945218;28;20047;-82
2023/01/22 07:08:38;;;;;;;1999.90;999.90;;;3.50;99.90;;;;;;4951150;28;20054;-81
2023/01/22 07:11:04;;;;;;;1999.90;999.90;;;5.70;99.90;;;;;;4953241;28;20394;-81
2023/01/22 07:13:30;;;;;;;1999.90;999.90;;;5.70;99.90;;;;;;4953197;28;20054;-81
2023/01/22 07:15:59;;;;;;;1999.90;999.90;;;5.80;99.90;;;;;;4957236;28;20210;-82
2023/01/22 07:18:25;;;;;;;1999.90;999.90;;;6.60;99.90;;;;;;4954485;28;20130;-81
2023/01/22 07:20:51;;;;;;;1999.90;999.90;;;5.10;99.90;;;;;;4952042;28;20035;-81
2023/01/22 07:23:16;;;;;;;1999.90;999.90;;;5.90;99.90;;;;;;4952181;28;20039;-82
2023/01/22 07:25:43;;;;;;;1999.90;999.90;;;5.60;99.90;;;;;;4936507;29;20066;-82
2023/01/22 07:28:11;;;;;;;1999.90;999.90;;;5.80;99.90;;;;;;4952455;28;20475;-81
2023/01/22 07:30:39;;;;;;;;;;;6.20;99.90;;;;;;4952371;28;20515;-82
2023/01/22 07:33:05;;;;;;;1999.90;999.90;;;;;;;;;;4936196;29;20367;-81
2023/01/22 07:35:31;;;;;;;1999.90;999.90;;;6.00;99.90;;;;;;4953258;28;20046;-81
2023/01/22 07:37:58;;;;;;;1999.90;999.90;;;5.80;99.90;;;;;;4947215;28;20234;-81
2023/01/22 07:40:24;;;;;;;;;;;6.30;99.90;;;;;;4950432;28;20111;-81
2023/01/22 07:42:51;;;;;;;1999.90;999.90;;;6.30;99.90;;;;;;4949001;28;19930;-82
2023/01/22 07:45:18;;;;;;;1999.90;999.90;;;;;;;;;;4943498;28;20496;-83
2023/01/22 07:47:56;;;;;;;1999.90;999.90;;;5.60;99.90;;;;;;4943077;28;20414;-81
2023/01/22 07:50:30;;;;;;;1999.90;999.90;;;5.80;99.90;;;;;;4951550;28;20047;-81
2023/01/22 07:52:56;;;;;;;1999.90;999.90;;;4.90;99.90;;;;;;4953003;28;20046;-82
2023/01/22 07:55:22;;;;;;;1999.90;999.90;;;5.70;99.90;;;;;;4945556;28;20046;-81
2023/01/22 07:57:55;;;;;;;1999.90;999.90;;;4.20;99.90;;;;;;4950731;28;20122;-80
2023/01/22 08:00:21;;;;;;;1999.90;999.90;;;6.00;99.90;;;;;;4949829;28;20051;-81
2023/01/22 08:02:49;;;;;;;1999.90;999.90;;;5.60;99.90;;;;;;4953904;29;20400;-81
2023/01/22 08:05:15;;;;;;;1999.90;999.90;;;5.50;99.90;;;;;;4948171;28;20484;-81
2023/01/22 08:07:41;;;;;;;1999.90;999.90;;;;;;;;;;4947961;28;20049;-85
2023/01/22 08:10:08;;;;;;;1999.90;999.90;;;6.20;99.90;;;;;;4950973;28;20468;-84
2023/01/22 08:12:37;;;;;;;1999.90;999.90;;;5.90;99.90;;;;;;4953079;29;20043;-81
2023/01/22 08:15:03;;;;;;;1999.90;999.90;;;5.70;99.90;;;;;;4953054;28;20063;-82
2023/01/22 08:17:29;;;;;;;1999.90;999.90;;;5.80;99.90;;;;;;4969015;28;20102;-82
2023/01/22 08:19:54;;;;;;;1999.90;999.90;;;6.60;99.90;;;;;;4954179;28;20043;-82
2023/01/22 08:22:20;;;;;;;1999.90;999.90;;;6.50;99.90;;;;;;4950918;28;20133;-82
2023/01/22 08:24:46;;;;;;;1999.90;999.90;;;5.90;99.90;;;;;;4947222;28;20071;-82
2023/01/22 08:27:11;;;;;;;1999.90;999.90;;;6.50;99.90;;;;;;4953148;28;20047;-82
2023/01/22 08:29:37;;;;;;;1999.90;999.90;;;4.10;99.90;;;;;;4953974;28;20047;-81
2023/01/22 08:32:03;;;;;;;1999.90;999.90;;;8.40;99.90;;;;;;4952255;28;20073;-81
2023/01/22 08:34:29;;;;;;;1999.90;999.90;;;7.00;99.90;;;;;;4946857;28;20404;-82
2023/01/22 08:36:54;;;;;;;1999.90;999.90;;;5.00;99.90;;;;;;4947285;29;20047;-81
2023/01/22 08:39:20;;;;;;;1999.90;999.90;;;6.10;99.90;;;;;;4946500;28;20097;-82
2023/01/22 08:41:46;;;;;;;1999.90;999.90;;;4.90;99.90;;;;;;4960729;28;20046;-82
2023/01/22 08:44:12;;;;;;;1999.90;999.90;;;;;;;;;;4952708;28;20149;-82
2023/01/22 08:46:41;;;;;;;1999.90;999.90;;;;;;;;;;4949800;28;20047;-82
2023/01/22 08:49:07;;;;;;;1999.90;999.90;;;6.50;99.90;;;;;;4945428;28;20146;-81
2023/01/22 08:51:33;;;;;;;1999.90;999.90;;;4.50;99.90;;;;;;4941526;28;20122;-81
2023/01/22 08:53:59;;;;;;;1999.90;999.90;;;6.60;99.90;;;;;;4951239;28;20043;-82
2023/01/22 08:56:25;;;;;;;1999.90;999.90;;;4.80;99.90;;;;;;4946675;28;20043;-81
2023/01/22 08:58:51;;;;;;;1999.90;999.90;;;3.50;99.90;;;;;;4944259;28;20136;-82
2023/01/22 09:01:18;;;;;;;1999.90;999.90;;;6.00;99.90;;;;;;4945066;28;20074;-82
2023/01/22 09:03:44;;;;;;;1999.90;999.90;;;4.70;99.90;;;;;;4949004;28;20436;-82
2023/01/22 09:06:11;;;;;;;1999.90;999.90;;;6.10;99.90;;;;;;4946967;28;20058;-82
2023/01/22 09:08:37;;;;;;;1999.90;999.90;;;6.20;99.90;;;;;;4945503;28;20105;-81
2023/01/22 09:11:04;;;;;;;1999.90;999.90;;;8.20;99.90;;;;;;4949329;28;20051;-84
2023/01/22 09:13:29;;;;;;;1999.90;999.90;;;5.30;99.90;;;;;;4943412;28;20055;-80
2023/01/22 09:15:56;;;;;;;1999.90;999.90;;;7.20;99.90;;;;;;4947442;28;20048;-80
2023/01/22 09:18:22;;;;;;;1999.90;999.90;;;;;;;;;;4942502;28;20507;-81
2023/01/22 09:20:48;;;;;;;1999.90;999.90;;;;;;;;;;4950520;28;20047;-81
2023/01/22 09:23:14;;;;;;;1999.90;999.90;;;6.50;99.90;;;;;;4953712;28;20498;-81
2023/01/22 09:25:40;;;;;;;1999.90;999.90;;;5.00;99.90;;;;;;4954004;29;20055;-80
2023/01/22 09:28:07;;;;;;;1999.90;999.90;;;6.30;99.90;;;;;;4952027;28;20476;-80
2023/01/22 09:30:35;;;;;;;1999.90;999.90;;;6.70;99.90;;;;;;4952512;29;20073;-81
2023/01/22 09:33:00;;;;;;;1999.90;999.90;;;6.20;99.90;;;;;;4954115;28;20190;-81
2023/01/22 09:35:27;;;;;;;1999.90;999.90;;;7.10;99.90;;;;;;4953294;28;20134;-81
2023/01/22 09:37:53;;;;;;;1999.90;999.90;;;;;;;;;;4952569;29;20364;-81
2023/01/22 09:40:29;;;;;;;1999.90;999.90;;;6.90;99.90;;;;;;4953393;29;20055;-81
2023/01/22 09:43:20;;;;;;;1999.90;999.90;;;6.80;99.90;;;;;;4940104;28;20111;-81
2023/01/22 09:45:47;;;;;;;1999.90;999.90;;;7.90;99.90;;;;;;4934399;29;20082;-81
2023/01/22 09:48:16;;;;;;;1999.90;999.90;;;7.20;99.90;;;;;;4934419;29;20067;-80
2023/01/22 09:50:42;;;;;;;1999.90;999.90;;;7.80;99.90;;;;;;4948207;29;20571;-80
2023/01/22 09:53:15;;;;;;;1999.90;999.90;;;8.50;99.90;;;;;;4951991;28;20134;-80
2023/01/22 09:55:49;;;;;;;1999.90;999.90;;;8.20;99.90;;;;;;4953863;28;20054;-80
2023/01/22 09:58:22;;;;;;;1999.90;999.90;;;8.30;99.90;;;;;;4953137;28;20116;-81
2023/01/22 10:00:58;;;;;;;1999.90;999.90;;;7.60;99.90;;;;;;4951614;29;20397;-82
2023/01/22 10:03:47;;;;;;;1999.90;999.90;;;6.60;99.90;;;;;;4953274;28;20505;-80
2023/01/22 10:06:21;;;;;;;1999.90;999.90;;;9.00;99.90;;;;;;4952858;28;20098;-81
2023/01/22 10:09:06;;;;;;;1999.90;999.90;;;9.40;99.90;;;;;;4949487;28;20051;-81
2023/01/22 10:11:33;;;;;;;1999.90;999.90;;;7.90;99.90;;;;;;4952200;28;20540;-80
2023/01/22 10:14:00;;;;;;;1999.90;999.90;;;8.70;99.90;;;;;;4954679;28;20063;-80
2023/01/22 10:16:27;;;;;;;1999.90;999.90;;;8.10;99.90;;;;;;4957358;28;20043;-80
2023/01/22 10:19:05;;;;;;;1999.90;999.90;;;8.20;99.90;;;;;;4955643;28;20396;-80
2023/01/22 10:21:44;;;;;;;1999.90;999.90;;;8.30;99.90;;;;;;4937317;29;20059;-80
2023/01/22 10:24:10;;;;;;;1999.90;999.90;;;8.50;99.90;;;;;;4956754;29;20058;-80
2023/01/22 10:26:46;;;;;;;1999.90;999.90;;;6.90;99.90;;;;;;4957135;28;20051;-80
2023/01/22 10:29:32;;;;;;;1999.90;999.90;;;8.10;99.90;;;;;;4955137;28;20051;-80
2023/01/22 10:32:04;;;;;;;1999.90;999.90;;;7.40;99.90;;;;;;4932737;29;20122;-81
2023/01/22 10:34:35;;;;;;;1999.90;999.90;;;8.80;99.90;;;;;;4952035;28;20043;-80
2023/01/22 10:37:18;;;;;;;1999.90;999.90;;;8.70;99.90;;;;;;4955370;29;20520;-80
2023/01/22 10:39:52;;;;;;;1999.90;999.90;;;8.80;99.90;;;;;;4950888;28;20047;-79
2023/01/22 10:42:23;;;;;;;1999.90;999.90;;;10.00;99.90;;;;;;4942790;29;20102;-83
2023/01/22 10:44:53;;;;;;;1999.90;999.90;;;10.60;99.90;;;;;;4953680;29;20039;-81
2023/01/22 10:47:22;;;;;;;1999.90;999.90;;;9.00;99.90;;;;;;4950578;28;20083;-80
2023/01/22 10:50:00;;;;;;;1999.90;999.90;;;9.10;99.90;;;;;;4945831;28;20039;-79
2023/01/22 10:52:43;;;;;;;1999.90;999.90;;;10.60;99.90;;;;;;4948536;28;20054;-80
2023/01/22 10:55:26;;;;;;;1999.90;999.90;;;9.40;99.90;;;;;;4953159;28;20043;-80
2023/01/22 10:58:01;;;;;;;1999.90;999.90;;;9.70;99.90;;;;;;4948610;28;20106;-80
2023/01/22 11:00:35;;;;;;;1999.90;999.90;;;9.20;99.90;;;;;;4952732;28;20575;-80
2023/01/22 11:03:23;;;;;;;1999.90;999.90;;;9.20;99.90;;;;;;4953517;28;20051;-80
2023/01/22 11:05:57;;;;;;;1999.90;999.90;;;9.90;99.90;;;;;;4949284;28;20170;-81
2023/01/22 11:08:29;;;;;;;1999.90;999.90;;;9.20;99.90;;;;;;4943312;28;20280;-80
2023/01/22 11:11:04;;;;;;;1999.90;999.90;;;9.20;99.90;;;;;;4954516;28;20050;-80
2023/01/22 11:13:33;;;;;;;1999.90;999.90;;;9.20;99.90;;;;;;4963766;28;20122;-79
2023/01/22 11:16:12;;;;;;;1999.90;999.90;;;10.20;99.90;;;;;;4927922;29;20500;-80
2023/01/22 11:18:41;;;;;;;1999.90;999.90;;;8.30;99.90;;;;;;4952322;28;20054;-80
2023/01/22 11:21:16;;;;;;;1999.90;999.90;;;10.30;99.90;;;;;;4950160;28;20179;-80
2023/01/22 11:23:53;;;;;;;1999.90;999.90;;;9.30;99.90;;;;;;4947568;28;20142;-80
2023/01/22 11:26:47;;;;;;;1999.90;999.90;;;9.80;99.90;;;;;;4951760;28;20090;-80
2023/01/22 11:29:43;;;;;;;1999.90;999.90;;;9.80;99.90;;;;;;4941656;28;20472;-81
2023/01/22 11:32:46;;;;;;;1999.90;999.90;;;9.50;99.90;;;;;;4936152;29;20056;-86
2023/01/22 11:35:53;;;;;;;1999.90;999.90;;;9.50;99.90;;;;;;4976023;28;20492;-81
2023/01/22 11:38:28;;;;;;;1999.90;999.90;;;10.00;99.90;;;;;;4933592;29;20109;-81
2023/01/22 11:41:11;;;;;;;1999.90;999.90;;;9.60;99.90;;;;;;4936732;29;20055;-80
2023/01/22 11:43:46;;;;;;;1999.90;999.90;;;9.60;99.90;;;;;;4942403;29;20040;-81
2023/01/22 11:46:54;;;;;;;1999.90;999.90;;;9.70;99.90;;;;;;4951852;29;20476;-80
2023/01/22 11:49:39;;;;;;;1999.90;999.90;;;9.60;99.90;;;;;;4953511;29;20051;-80
2023/01/22 11:52:13;;;;;;;1999.90;999.90;;;9.80;99.90;;;;;;4950740;28;20071;-79
2023/01/22 11:54:48;;;;;;;1999.90;999.90;;;10.00;99.90;;;;;;4951797;28;20114;-80
2023/01/22 11:57:15;;;;;;;1999.90;999.90;;;9.70;99.90;;;;;;4952770;29;20575;-80
2023/01/22 12:00:07;;;;;;;1999.90;999.90;;;10.00;99.90;;;;;;4937524;29;20086;-80
2023/01/22 12:02:57;;;;;;;1999.90;999.90;;;10.20;99.90;;;;;;4957728;28;20411;-80
2023/01/22 12:05:38;;;;;;;1999.90;999.90;;;10.30;99.90;;;;;;4947450;28;20051;-80
2023/01/22 12:08:19;;;;;;;1999.90;999.90;;;9.70;99.90;;;;;;4956989;28;20059;-79
2023/01/22 12:11:02;;;;;;;1999.90;999.90;;;10.30;99.90;;;;;;4953715;28;20110;-80
2023/01/22 12:13:31;;;;;;;1999.90;999.90;;;11.50;99.90;;;;;;4951687;28;20504;-80
2023/01/22 12:16:05;;;;;;;1999.90;999.90;;;10.40;99.90;;;;;;4947929;28;20079;-80
2023/01/22 12:18:43;;;;;;;1999.90;999.90;;;10.40;99.90;;;;;;4950210;28;20130;-79
2023/01/22 12:21:22;;;;;;;1999.90;999.90;;;7.40;99.90;;;;;;4962978;28;20051;-80
2023/01/22 12:23:58;;;;;;;;;;;10.80;99.90;;;;;;4945647;28;20051;-85
2023/01/22 12:26:31;;;;;;;1999.90;999.90;;;10.20;99.90;;;;;;4951179;28;19923;-80
2023/01/22 12:29:09;;;;;;;1999.90;999.90;;;9.80;99.90;;;;;;4953964;29;20055;-79
2023/01/22 12:31:41;;;;;;;1999.90;999.90;;;10.20;99.90;;;;;;4953878;28;20174;-80
2023/01/22 12:34:15;;;;;;;1999.90;999.90;;;10.10;99.90;;;;;;4953722;29;20048;-80